sensor_id;sensor_type;location;lat;lon;timestamp;temperature;humidity
6863;DHT22;3470;48.738;9.616;2022-08-04T00:00:14;21.10;80.20
6863;DHT22;3470;48.738;9.616;2022-08-04T00:11:20;21.10;79.50
6863;DHT22;3470;48.738;9.616;2022-08-04T00:14:12;21.10;79.50
6863;DHT22;3470;48.738;9.616;2022-08-04T00:16:36;21.00;78.90
6863;DHT22;3470;48.738;9.616;2022-08-04T00:19:30;21.10;78.80
6863;DHT22;3470;48.738;9.616;2022-08-04T00:22:02;21.30;78.00
6863;DHT22;3470;48.738;9.616;2022-08-04T00:24:33;21.50;77.60
6863;DHT22;3470;48.738;9.616;2022-08-04T00:27:00;21.50;77.40
6863;DHT22;3470;48.738;9.616;2022-08-04T00:29:26;21.50;78.00
6863;DHT22;3470;48.738;9.616;2022-08-04T00:31:54;21.40;78.40
6863;DHT22;3470;48.738;9.616;2022-08-04T00:34:21;21.30;78.80
6863;DHT22;3470;48.738;9.616;2022-08-04T00:36:48;21.20;78.90
6863;DHT22;3470;48.738;9.616;2022-08-04T00:39:15;21.10;79.20
6863;DHT22;3470;48.738;9.616;2022-08-04T00:55:22;21.00;78.80
6863;DHT22;3470;48.738;9.616;2022-08-04T01:00:18;21.10;77.70
6863;DHT22;3470;48.738;9.616;2022-08-04T01:04:05;21.30;77.50
6863;DHT22;3470;48.738;9.616;2022-08-04T01:09:04;21.50;77.00
6863;DHT22;3470;48.738;9.616;2022-08-04T01:17:31;21.50;77.20
6863;DHT22;3470;48.738;9.616;2022-08-04T01:30:32;21.40;78.20
6863;DHT22;3470;48.738;9.616;2022-08-04T01:33:08;21.30;78.30
6863;DHT22;3470;48.738;9.616;2022-08-04T01:36:16;21.20;79.10
6863;DHT22;3470;48.738;9.616;2022-08-04T01:38:39;21.30;78.70
6863;DHT22;3470;48.738;9.616;2022-08-04T01:41:10;21.30;78.50
6863;DHT22;3470;48.738;9.616;2022-08-04T01:43:42;21.30;78.60
6863;DHT22;3470;48.738;9.616;2022-08-04T01:46:13;21.30;78.80
6863;DHT22;3470;48.738;9.616;2022-08-04T01:48:41;21.30;78.70
6863;DHT22;3470;48.738;9.616;2022-08-04T01:51:08;21.30;78.70
6863;DHT22;3470;48.738;9.616;2022-08-04T01:53:36;21.30;78.70
6863;DHT22;3470;48.738;9.616;2022-08-04T01:56:07;21.40;78.40
6863;DHT22;3470;48.738;9.616;2022-08-04T01:58:34;21.30;78.80
6863;DHT22;3470;48.738;9.616;2022-08-04T02:01:05;21.30;78.90
6863;DHT22;3470;48.738;9.616;2022-08-04T02:03:32;21.30;78.80
6863;DHT22;3470;48.738;9.616;2022-08-04T02:06:17;21.20;79.10
6863;DHT22;3470;48.738;9.616;2022-08-04T02:09:16;21.20;79.40
6863;DHT22;3470;48.738;9.616;2022-08-04T02:11:51;21.20;79.30
6863;DHT22;3470;48.738;9.616;2022-08-04T02:14:31;21.30;78.80
6863;DHT22;3470;48.738;9.616;2022-08-04T02:17:21;21.40;78.50
6863;DHT22;3470;48.738;9.616;2022-08-04T02:20:43;21.50;78.60
6863;DHT22;3470;48.738;9.616;2022-08-04T02:22:58;21.50;78.90
6863;DHT22;3470;48.738;9.616;2022-08-04T02:25:27;21.50;78.90
6863;DHT22;3470;48.738;9.616;2022-08-04T02:28:21;21.40;79.10
6863;DHT22;3470;48.738;9.616;2022-08-04T02:31:07;21.30;79.40
6863;DHT22;3470;48.738;9.616;2022-08-04T02:34:08;21.20;79.80
6863;DHT22;3470;48.738;9.616;2022-08-04T02:36:37;21.00;80.30
6863;DHT22;3470;48.738;9.616;2022-08-04T02:39:13;20.80;80.80
6863;DHT22;3470;48.738;9.616;2022-08-04T02:41:42;20.70;80.80
6863;DHT22;3470;48.738;9.616;2022-08-04T02:44:08;20.80;80.90
6863;DHT22;3470;48.738;9.616;2022-08-04T02:46:37;20.90;80.70
6863;DHT22;3470;48.738;9.616;2022-08-04T02:49:06;21.00;80.40
6863;DHT22;3470;48.738;9.616;2022-08-04T02:51:35;21.10;80.50
6863;DHT22;3470;48.738;9.616;2022-08-04T02:54:03;21.20;79.90
6863;DHT22;3470;48.738;9.616;2022-08-04T02:56:31;21.30;80.00
6863;DHT22;3470;48.738;9.616;2022-08-04T02:59:02;21.30;79.90
6863;DHT22;3470;48.738;9.616;2022-08-04T03:01:28;21.20;80.00
6863;DHT22;3470;48.738;9.616;2022-08-04T03:20:25;20.80;81.60
6863;DHT22;3470;48.738;9.616;2022-08-04T03:28:31;20.60;82.10
6863;DHT22;3470;48.738;9.616;2022-08-04T03:45:31;20.50;82.50
6863;DHT22;3470;48.738;9.616;2022-08-04T03:47:56;20.40;82.50
6863;DHT22;3470;48.738;9.616;2022-08-04T03:53:35;20.40;83.00
6863;DHT22;3470;48.738;9.616;2022-08-04T03:56:50;20.40;82.20
6863;DHT22;3470;48.738;9.616;2022-08-04T04:07:57;20.50;82.00
6863;DHT22;3470;48.738;9.616;2022-08-04T04:18:56;20.50;82.90
6863;DHT22;3470;48.738;9.616;2022-08-04T04:35:36;20.60;83.60
6863;DHT22;3470;48.738;9.616;2022-08-04T04:48:37;20.70;82.40
6863;DHT22;3470;48.738;9.616;2022-08-04T04:51:11;20.70;81.70
6863;DHT22;3470;48.738;9.616;2022-08-04T04:53:44;20.80;82.40
6863;DHT22;3470;48.738;9.616;2022-08-04T04:56:29;20.90;83.80
6863;DHT22;3470;48.738;9.616;2022-08-04T04:59:00;21.10;81.60
6863;DHT22;3470;48.738;9.616;2022-08-04T05:05:05;21.40;81.30
6863;DHT22;3470;48.738;9.616;2022-08-04T05:10:31;21.60;80.70
6863;DHT22;3470;48.738;9.616;2022-08-04T05:13:08;21.60;80.80
6863;DHT22;3470;48.738;9.616;2022-08-04T05:15:41;21.60;81.80
6863;DHT22;3470;48.738;9.616;2022-08-04T05:18:13;21.60;82.10
6863;DHT22;3470;48.738;9.616;2022-08-04T05:20:44;21.60;82.00
6863;DHT22;3470;48.738;9.616;2022-08-04T05:23:20;21.50;82.00
6863;DHT22;3470;48.738;9.616;2022-08-04T05:25:52;21.50;82.70
6863;DHT22;3470;48.738;9.616;2022-08-04T05:28:38;21.50;83.80
6863;DHT22;3470;48.738;9.616;2022-08-04T05:31:11;21.40;84.40
6863;DHT22;3470;48.738;9.616;2022-08-04T05:33:42;21.30;84.90
6863;DHT22;3470;48.738;9.616;2022-08-04T05:36:16;21.30;85.60
6863;DHT22;3470;48.738;9.616;2022-08-04T05:38:42;21.30;85.10
6863;DHT22;3470;48.738;9.616;2022-08-04T05:41:10;21.30;85.70
6863;DHT22;3470;48.738;9.616;2022-08-04T05:43:38;21.30;85.40
6863;DHT22;3470;48.738;9.616;2022-08-04T05:46:08;21.40;85.50
6863;DHT22;3470;48.738;9.616;2022-08-04T05:48:34;21.50;85.30
6863;DHT22;3470;48.738;9.616;2022-08-04T05:51:02;21.50;85.20
6863;DHT22;3470;48.738;9.616;2022-08-04T05:53:28;21.50;84.90
6863;DHT22;3470;48.738;9.616;2022-08-04T05:55:55;21.60;85.30
6863;DHT22;3470;48.738;9.616;2022-08-04T05:58:21;21.70;85.40
6863;DHT22;3470;48.738;9.616;2022-08-04T06:00:49;21.70;85.10
6863;DHT22;3470;48.738;9.616;2022-08-04T06:03:17;21.80;84.70
6863;DHT22;3470;48.738;9.616;2022-08-04T06:05:44;21.90;85.00
6863;DHT22;3470;48.738;9.616;2022-08-04T06:08:10;22.00;84.50
6863;DHT22;3470;48.738;9.616;2022-08-04T06:10:37;22.20;83.50
6863;DHT22;3470;48.738;9.616;2022-08-04T06:13:10;22.40;83.30
6863;DHT22;3470;48.738;9.616;2022-08-04T06:15:40;22.50;82.40
6863;DHT22;3470;48.738;9.616;2022-08-04T06:18:08;22.60;83.00
6863;DHT22;3470;48.738;9.616;2022-08-04T06:20:37;22.70;82.90
6863;DHT22;3470;48.738;9.616;2022-08-04T06:23:15;22.80;82.60
6863;DHT22;3470;48.738;9.616;2022-08-04T06:25:49;22.80;82.70
6863;DHT22;3470;48.738;9.616;2022-08-04T06:28:17;23.00;82.70
6863;DHT22;3470;48.738;9.616;2022-08-04T06:30:43;23.00;82.80
6863;DHT22;3470;48.738;9.616;2022-08-04T06:33:14;23.10;82.80
6863;DHT22;3470;48.738;9.616;2022-08-04T06:35:59;23.20;82.10
6863;DHT22;3470;48.738;9.616;2022-08-04T06:38:27;23.30;82.20
6863;DHT22;3470;48.738;9.616;2022-08-04T06:40:53;23.40;82.10
6863;DHT22;3470;48.738;9.616;2022-08-04T06:43:22;23.60;81.50
6863;DHT22;3470;48.738;9.616;2022-08-04T06:45:49;23.70;81.00
6863;DHT22;3470;48.738;9.616;2022-08-04T06:48:16;23.90;80.00
6863;DHT22;3470;48.738;9.616;2022-08-04T06:50:52;24.00;81.00
6863;DHT22;3470;48.738;9.616;2022-08-04T06:53:18;24.20;78.50
6863;DHT22;3470;48.738;9.616;2022-08-04T06:55:47;24.30;78.80
6863;DHT22;3470;48.738;9.616;2022-08-04T06:58:14;24.40;79.10
6863;DHT22;3470;48.738;9.616;2022-08-04T07:00:42;24.50;78.00
6863;DHT22;3470;48.738;9.616;2022-08-04T07:03:10;24.70;76.90
6863;DHT22;3470;48.738;9.616;2022-08-04T07:05:36;24.80;77.10
6863;DHT22;3470;48.738;9.616;2022-08-04T07:08:03;24.90;76.30
6863;DHT22;3470;48.738;9.616;2022-08-04T07:10:30;25.00;76.30
6863;DHT22;3470;48.738;9.616;2022-08-04T07:12:57;25.20;77.00
6863;DHT22;3470;48.738;9.616;2022-08-04T07:15:24;25.40;75.50
6863;DHT22;3470;48.738;9.616;2022-08-04T07:17:50;25.60;75.30
6863;DHT22;3470;48.738;9.616;2022-08-04T07:20:16;25.80;75.20
6863;DHT22;3470;48.738;9.616;2022-08-04T07:22:45;26.10;73.60
6863;DHT22;3470;48.738;9.616;2022-08-04T07:25:14;26.50;74.60
6863;DHT22;3470;48.738;9.616;2022-08-04T07:27:41;27.00;73.20
6863;DHT22;3470;48.738;9.616;2022-08-04T07:30:08;27.80;69.50
6863;DHT22;3470;48.738;9.616;2022-08-04T07:32:34;28.70;67.70
6863;DHT22;3470;48.738;9.616;2022-08-04T07:35:01;29.60;65.00
6863;DHT22;3470;48.738;9.616;2022-08-04T07:37:27;30.10;63.50
6863;DHT22;3470;48.738;9.616;2022-08-04T07:39:52;30.40;62.80
6863;DHT22;3470;48.738;9.616;2022-08-04T07:42:19;30.80;61.00
6863;DHT22;3470;48.738;9.616;2022-08-04T07:44:45;31.00;59.90
6863;DHT22;3470;48.738;9.616;2022-08-04T07:47:11;31.30;59.40
6863;DHT22;3470;48.738;9.616;2022-08-04T07:49:37;31.50;59.50
6863;DHT22;3470;48.738;9.616;2022-08-04T07:52:05;32.20;59.00
6863;DHT22;3470;48.738;9.616;2022-08-04T07:54:33;32.50;58.10
6863;DHT22;3470;48.738;9.616;2022-08-04T07:56:59;32.70;57.70
6863;DHT22;3470;48.738;9.616;2022-08-04T07:59:31;33.00;57.60
6863;DHT22;3470;48.738;9.616;2022-08-04T08:02:01;33.50;56.30
6863;DHT22;3470;48.738;9.616;2022-08-04T08:04:28;34.00;55.60
6863;DHT22;3470;48.738;9.616;2022-08-04T08:06:54;34.60;54.90
6863;DHT22;3470;48.738;9.616;2022-08-04T08:09:21;35.10;54.60
6863;DHT22;3470;48.738;9.616;2022-08-04T08:11:49;35.60;54.00
6863;DHT22;3470;48.738;9.616;2022-08-04T08:14:15;36.20;53.20
6863;DHT22;3470;48.738;9.616;2022-08-04T08:16:42;36.70;52.00
6863;DHT22;3470;48.738;9.616;2022-08-04T08:19:08;37.20;51.30
6863;DHT22;3470;48.738;9.616;2022-08-04T08:21:33;37.10;51.00
6863;DHT22;3470;48.738;9.616;2022-08-04T08:23:59;37.50;49.80
6863;DHT22;3470;48.738;9.616;2022-08-04T08:26:26;37.90;50.20
6863;DHT22;3470;48.738;9.616;2022-08-04T08:28:52;38.40;50.30
6863;DHT22;3470;48.738;9.616;2022-08-04T08:31:17;38.60;49.30
6863;DHT22;3470;48.738;9.616;2022-08-04T08:33:44;39.00;48.30
6863;DHT22;3470;48.738;9.616;2022-08-04T08:36:24;39.10;47.70
6863;DHT22;3470;48.738;9.616;2022-08-04T08:42:03;40.00;47.80
6863;DHT22;3470;48.738;9.616;2022-08-04T08:45:12;40.20;46.60
6863;DHT22;3470;48.738;9.616;2022-08-04T08:58:43;41.60;45.00
6863;DHT22;3470;48.738;9.616;2022-08-04T09:10:19;43.40;42.90
6863;DHT22;3470;48.738;9.616;2022-08-04T09:13:04;43.50;43.20
6863;DHT22;3470;48.738;9.616;2022-08-04T09:15:51;44.10;43.20
6863;DHT22;3470;48.738;9.616;2022-08-04T09:18:37;44.20;42.20
6863;DHT22;3470;48.738;9.616;2022-08-04T09:21:40;45.20;42.40
6863;DHT22;3470;48.738;9.616;2022-08-04T09:24:17;45.10;41.80
6863;DHT22;3470;48.738;9.616;2022-08-04T09:27:00;45.80;41.60
6863;DHT22;3470;48.738;9.616;2022-08-04T09:29:38;46.00;41.00
6863;DHT22;3470;48.738;9.616;2022-08-04T09:32:40;46.60;40.40
6863;DHT22;3470;48.738;9.616;2022-08-04T09:38:09;47.20;39.00
6863;DHT22;3470;48.738;9.616;2022-08-04T09:41:02;46.90;38.20
6863;DHT22;3470;48.738;9.616;2022-08-04T09:44:24;46.30;37.90
6863;DHT22;3470;48.738;9.616;2022-08-04T09:55:11;46.20;38.30
6863;DHT22;3470;48.738;9.616;2022-08-04T10:00:12;47.50;37.30
6863;DHT22;3470;48.738;9.616;2022-08-04T10:02:44;47.40;36.90
6863;DHT22;3470;48.738;9.616;2022-08-04T10:05:13;47.90;37.10
6863;DHT22;3470;48.738;9.616;2022-08-04T10:11:08;47.30;36.80
6863;DHT22;3470;48.738;9.616;2022-08-04T10:16:28;45.70;37.70
6863;DHT22;3470;48.738;9.616;2022-08-04T10:19:06;45.30;38.10
6863;DHT22;3470;48.738;9.616;2022-08-04T10:24:47;46.10;37.90
6863;DHT22;3470;48.738;9.616;2022-08-04T10:27:27;46.90;37.20
6863;DHT22;3470;48.738;9.616;2022-08-04T10:30:00;46.80;37.50
6863;DHT22;3470;48.738;9.616;2022-08-04T10:32:36;47.00;37.60
6863;DHT22;3470;48.738;9.616;2022-08-04T10:41:03;48.00;36.20
6863;DHT22;3470;48.738;9.616;2022-08-04T10:46:22;46.60;36.40
6863;DHT22;3470;48.738;9.616;2022-08-04T10:49:20;45.90;37.30
6863;DHT22;3470;48.738;9.616;2022-08-04T10:51:58;46.50;36.60
6863;DHT22;3470;48.738;9.616;2022-08-04T10:54:38;46.50;36.90
6863;DHT22;3470;48.738;9.616;2022-08-04T11:00:04;47.50;37.00
6863;DHT22;3470;48.738;9.616;2022-08-04T11:05:32;47.60;36.50
6863;DHT22;3470;48.738;9.616;2022-08-04T11:08:03;48.60;35.30
6863;DHT22;3470;48.738;9.616;2022-08-04T11:10:34;49.30;34.20
6863;DHT22;3470;48.738;9.616;2022-08-04T11:13:06;49.20;33.20
6863;DHT22;3470;48.738;9.616;2022-08-04T11:15:46;48.50;33.40
6863;DHT22;3470;48.738;9.616;2022-08-04T11:18:18;48.30;34.10
6863;DHT22;3470;48.738;9.616;2022-08-04T11:20:54;48.60;34.30
6863;DHT22;3470;48.738;9.616;2022-08-04T11:23:27;47.30;35.30
6863;DHT22;3470;48.738;9.616;2022-08-04T11:29:03;48.10;35.10
6863;DHT22;3470;48.738;9.616;2022-08-04T11:31:31;48.80;34.60
6863;DHT22;3470;48.738;9.616;2022-08-04T11:34:09;48.20;34.50
6863;DHT22;3470;48.738;9.616;2022-08-04T11:39:35;48.80;32.50
6863;DHT22;3470;48.738;9.616;2022-08-04T11:42:13;48.80;32.30
6863;DHT22;3470;48.738;9.616;2022-08-04T11:44:47;48.80;32.30
6863;DHT22;3470;48.738;9.616;2022-08-04T11:47:37;49.00;32.20
6863;DHT22;3470;48.738;9.616;2022-08-04T11:50:28;48.50;32.70
6863;DHT22;3470;48.738;9.616;2022-08-04T11:52:56;47.90;33.80
6863;DHT22;3470;48.738;9.616;2022-08-04T11:55:26;48.60;32.90
6863;DHT22;3470;48.738;9.616;2022-08-04T11:57:53;48.90;33.20
6863;DHT22;3470;48.738;9.616;2022-08-04T12:00:20;49.20;33.20
6863;DHT22;3470;48.738;9.616;2022-08-04T12:05:35;47.50;31.60
6863;DHT22;3470;48.738;9.616;2022-08-04T12:14:06;48.20;31.30
6863;DHT22;3470;48.738;9.616;2022-08-04T12:17:04;47.70;31.90
6863;DHT22;3470;48.738;9.616;2022-08-04T12:19:51;47.50;32.60
6863;DHT22;3470;48.738;9.616;2022-08-04T12:22:24;47.60;33.10
6863;DHT22;3470;48.738;9.616;2022-08-04T12:25:20;47.10;32.40
6863;DHT22;3470;48.738;9.616;2022-08-04T12:27:57;47.20;32.90
6863;DHT22;3470;48.738;9.616;2022-08-04T12:30:28;48.80;32.50
6863;DHT22;3470;48.738;9.616;2022-08-04T12:33:04;49.60;31.70
6863;DHT22;3470;48.738;9.616;2022-08-04T12:38:34;48.80;32.20
6863;DHT22;3470;48.738;9.616;2022-08-04T12:41:01;49.00;32.20
6863;DHT22;3470;48.738;9.616;2022-08-04T12:43:44;48.60;32.80
6863;DHT22;3470;48.738;9.616;2022-08-04T12:46:23;48.70;33.00
6863;DHT22;3470;48.738;9.616;2022-08-04T12:48:49;47.60;32.60
6863;DHT22;3470;48.738;9.616;2022-08-04T12:51:16;47.40;32.30
6863;DHT22;3470;48.738;9.616;2022-08-04T12:53:44;47.90;33.30
6863;DHT22;3470;48.738;9.616;2022-08-04T12:56:11;46.90;33.30
6863;DHT22;3470;48.738;9.616;2022-08-04T12:58:41;46.30;33.90
6863;DHT22;3470;48.738;9.616;2022-08-04T13:01:11;46.60;34.10
6863;DHT22;3470;48.738;9.616;2022-08-04T13:06:28;47.10;33.50
6863;DHT22;3470;48.738;9.616;2022-08-04T13:08:54;47.10;33.90
6863;DHT22;3470;48.738;9.616;2022-08-04T13:11:26;47.50;33.60
6863;DHT22;3470;48.738;9.616;2022-08-04T13:13:53;48.00;33.30
6863;DHT22;3470;48.738;9.616;2022-08-04T13:16:28;48.20;33.40
6863;DHT22;3470;48.738;9.616;2022-08-04T13:18:55;48.20;32.40
6863;DHT22;3470;48.738;9.616;2022-08-04T13:21:24;48.40;33.20
6863;DHT22;3470;48.738;9.616;2022-08-04T13:23:56;48.10;33.60
6863;DHT22;3470;48.738;9.616;2022-08-04T13:26:25;47.10;34.20
6863;DHT22;3470;48.738;9.616;2022-08-04T13:28:53;46.80;34.80
6863;DHT22;3470;48.738;9.616;2022-08-04T13:31:21;46.50;34.70
6863;DHT22;3470;48.738;9.616;2022-08-04T13:34:01;46.90;36.30
6863;DHT22;3470;48.738;9.616;2022-08-04T13:36:31;46.50;35.40
6863;DHT22;3470;48.738;9.616;2022-08-04T13:38:59;46.70;35.00
6863;DHT22;3470;48.738;9.616;2022-08-04T13:41:27;46.10;35.20
6863;DHT22;3470;48.738;9.616;2022-08-04T13:43:56;45.70;36.20
6863;DHT22;3470;48.738;9.616;2022-08-04T13:46:30;45.60;37.00
6863;DHT22;3470;48.738;9.616;2022-08-04T13:48:58;44.60;36.60
6863;DHT22;3470;48.738;9.616;2022-08-04T13:51:27;43.70;37.20
6863;DHT22;3470;48.738;9.616;2022-08-04T13:53:57;43.60;37.90
6863;DHT22;3470;48.738;9.616;2022-08-04T13:56:23;43.90;37.90
6863;DHT22;3470;48.738;9.616;2022-08-04T13:58:54;44.20;37.00
6863;DHT22;3470;48.738;9.616;2022-08-04T14:01:27;44.30;37.10
6863;DHT22;3470;48.738;9.616;2022-08-04T14:04:08;44.20;37.90
6863;DHT22;3470;48.738;9.616;2022-08-04T14:07:01;43.70;37.80
6863;DHT22;3470;48.738;9.616;2022-08-04T14:09:27;43.50;37.80
6863;DHT22;3470;48.738;9.616;2022-08-04T14:11:55;43.20;38.30
6863;DHT22;3470;48.738;9.616;2022-08-04T14:14:29;43.10;38.00
6863;DHT22;3470;48.738;9.616;2022-08-04T14:19:23;43.60;37.20
6863;DHT22;3470;48.738;9.616;2022-08-04T14:21:48;43.90;37.20
6863;DHT22;3470;48.738;9.616;2022-08-04T14:24:25;44.00;37.40
6863;DHT22;3470;48.738;9.616;2022-08-04T14:26:52;44.10;37.40
6863;DHT22;3470;48.738;9.616;2022-08-04T14:29:18;44.20;36.90
6863;DHT22;3470;48.738;9.616;2022-08-04T14:31:47;43.90;37.00
6863;DHT22;3470;48.738;9.616;2022-08-04T14:34:28;44.40;36.70
6863;DHT22;3470;48.738;9.616;2022-08-04T14:36:54;44.30;37.30
6863;DHT22;3470;48.738;9.616;2022-08-04T14:39:50;44.50;36.90
6863;DHT22;3470;48.738;9.616;2022-08-04T14:42:17;44.60;36.30
6863;DHT22;3470;48.738;9.616;2022-08-04T14:44:56;44.00;37.00
6863;DHT22;3470;48.738;9.616;2022-08-04T14:50:09;43.10;37.90
6863;DHT22;3470;48.738;9.616;2022-08-04T14:52:35;43.30;37.80
6863;DHT22;3470;48.738;9.616;2022-08-04T14:57:40;43.50;38.00
6863;DHT22;3470;48.738;9.616;2022-08-04T15:00:06;43.10;37.80
6863;DHT22;3470;48.738;9.616;2022-08-04T15:02:32;43.00;38.00
6863;DHT22;3470;48.738;9.616;2022-08-04T15:05:01;42.70;38.20
6863;DHT22;3470;48.738;9.616;2022-08-04T15:07:27;42.60;38.40
6863;DHT22;3470;48.738;9.616;2022-08-04T15:09:54;42.50;37.70
6863;DHT22;3470;48.738;9.616;2022-08-04T15:12:20;42.00;38.00
6863;DHT22;3470;48.738;9.616;2022-08-04T15:14:45;41.60;38.50
6863;DHT22;3470;48.738;9.616;2022-08-04T15:17:11;41.40;39.30
6863;DHT22;3470;48.738;9.616;2022-08-04T15:19:37;41.30;39.50
6863;DHT22;3470;48.738;9.616;2022-08-04T15:22:03;41.00;39.90
6863;DHT22;3470;48.738;9.616;2022-08-04T15:24:29;40.60;39.50
6863;DHT22;3470;48.738;9.616;2022-08-04T15:26:56;40.60;39.20
6863;DHT22;3470;48.738;9.616;2022-08-04T15:29:42;40.30;40.10
6863;DHT22;3470;48.738;9.616;2022-08-04T15:32:14;40.50;39.50
6863;DHT22;3470;48.738;9.616;2022-08-04T15:34:50;40.20;40.30
6863;DHT22;3470;48.738;9.616;2022-08-04T15:40:17;40.20;40.60
6863;DHT22;3470;48.738;9.616;2022-08-04T15:42:47;40.20;39.90
6863;DHT22;3470;48.738;9.616;2022-08-04T15:45:22;40.10;39.90
6863;DHT22;3470;48.738;9.616;2022-08-04T15:53:30;39.70;40.60
6863;DHT22;3470;48.738;9.616;2022-08-04T15:55:56;39.30;40.70
6863;DHT22;3470;48.738;9.616;2022-08-04T15:58:47;39.60;40.80
6863;DHT22;3470;48.738;9.616;2022-08-04T16:01:14;39.90;40.60
6863;DHT22;3470;48.738;9.616;2022-08-04T16:03:41;39.60;40.40
6863;DHT22;3470;48.738;9.616;2022-08-04T16:16:28;38.20;42.00
6863;DHT22;3470;48.738;9.616;2022-08-04T16:18:54;38.30;42.30
6863;DHT22;3470;48.738;9.616;2022-08-04T16:21:22;37.90;42.70
6863;DHT22;3470;48.738;9.616;2022-08-04T16:29:02;36.80;44.20
6863;DHT22;3470;48.738;9.616;2022-08-04T16:31:29;36.50;44.80
6863;DHT22;3470;48.738;9.616;2022-08-04T16:33:59;36.10;44.00
6863;DHT22;3470;48.738;9.616;2022-08-04T16:36:54;35.90;44.70
6863;DHT22;3470;48.738;9.616;2022-08-04T16:39:19;35.80;45.20
6863;DHT22;3470;48.738;9.616;2022-08-04T16:41:45;35.60;45.50
6863;DHT22;3470;48.738;9.616;2022-08-04T16:46:59;35.60;46.00
6863;DHT22;3470;48.738;9.616;2022-08-04T16:49:26;35.50;46.00
6863;DHT22;3470;48.738;9.616;2022-08-04T16:51:52;35.30;46.00
6863;DHT22;3470;48.738;9.616;2022-08-04T16:54:18;35.20;46.90
6863;DHT22;3470;48.738;9.616;2022-08-04T16:56:45;35.10;46.90
6863;DHT22;3470;48.738;9.616;2022-08-04T16:59:12;35.00;46.90
6863;DHT22;3470;48.738;9.616;2022-08-04T17:01:48;34.80;47.80
6863;DHT22;3470;48.738;9.616;2022-08-04T17:04:15;34.60;48.00
6863;DHT22;3470;48.738;9.616;2022-08-04T17:06:41;34.50;47.40
6863;DHT22;3470;48.738;9.616;2022-08-04T17:09:12;34.40;47.00
6863;DHT22;3470;48.738;9.616;2022-08-04T17:11:38;34.40;47.50
6863;DHT22;3470;48.738;9.616;2022-08-04T17:14:04;34.20;47.00
6863;DHT22;3470;48.738;9.616;2022-08-04T17:16:33;34.20;47.60
6863;DHT22;3470;48.738;9.616;2022-08-04T17:18:59;34.10;47.70
6863;DHT22;3470;48.738;9.616;2022-08-04T17:21:31;34.00;48.20
6863;DHT22;3470;48.738;9.616;2022-08-04T17:23:59;34.00;48.40
6863;DHT22;3470;48.738;9.616;2022-08-04T17:26:27;34.00;48.40
6863;DHT22;3470;48.738;9.616;2022-08-04T17:28:55;33.90;49.10
6863;DHT22;3470;48.738;9.616;2022-08-04T17:31:22;33.80;49.60
6863;DHT22;3470;48.738;9.616;2022-08-04T17:33:53;33.70;50.50
6863;DHT22;3470;48.738;9.616;2022-08-04T17:36:30;33.70;50.00
6863;DHT22;3470;48.738;9.616;2022-08-04T17:38:58;33.60;49.20
6863;DHT22;3470;48.738;9.616;2022-08-04T17:41:26;33.50;50.00
6863;DHT22;3470;48.738;9.616;2022-08-04T17:43:55;33.40;50.40
6863;DHT22;3470;48.738;9.616;2022-08-04T17:54:20;33.10;50.00
6863;DHT22;3470;48.738;9.616;2022-08-04T17:56:48;33.10;49.80
6863;DHT22;3470;48.738;9.616;2022-08-04T17:59:40;33.00;50.80
6863;DHT22;3470;48.738;9.616;2022-08-04T18:02:06;32.90;50.50
6863;DHT22;3470;48.738;9.616;2022-08-04T18:04:37;32.80;51.70
6863;DHT22;3470;48.738;9.616;2022-08-04T18:07:05;32.60;52.80
6863;DHT22;3470;48.738;9.616;2022-08-04T18:09:37;32.50;54.70
6863;DHT22;3470;48.738;9.616;2022-08-04T18:12:03;32.30;54.30
6863;DHT22;3470;48.738;9.616;2022-08-04T18:14:46;32.10;54.50
6863;DHT22;3470;48.738;9.616;2022-08-04T18:17:14;31.90;55.40
6863;DHT22;3470;48.738;9.616;2022-08-04T18:19:52;31.80;55.10
6863;DHT22;3470;48.738;9.616;2022-08-04T18:22:18;31.60;55.00
6863;DHT22;3470;48.738;9.616;2022-08-04T18:24:44;31.50;55.90
6863;DHT22;3470;48.738;9.616;2022-08-04T18:27:09;31.40;55.00
6863;DHT22;3470;48.738;9.616;2022-08-04T18:29:35;31.30;54.60
6863;DHT22;3470;48.738;9.616;2022-08-04T18:32:01;31.20;54.60
6863;DHT22;3470;48.738;9.616;2022-08-04T18:34:27;31.00;54.20
6863;DHT22;3470;48.738;9.616;2022-08-04T18:36:54;31.00;55.30
6863;DHT22;3470;48.738;9.616;2022-08-04T18:39:20;30.90;55.10
6863;DHT22;3470;48.738;9.616;2022-08-04T18:41:50;30.80;55.30
6863;DHT22;3470;48.738;9.616;2022-08-04T18:44:15;30.70;55.70
6863;DHT22;3470;48.738;9.616;2022-08-04T18:46:41;30.70;56.10
6863;DHT22;3470;48.738;9.616;2022-08-04T18:49:08;30.60;59.50
6863;DHT22;3470;48.738;9.616;2022-08-04T18:51:35;30.40;57.50
6863;DHT22;3470;48.738;9.616;2022-08-04T18:54:02;30.30;58.60
6863;DHT22;3470;48.738;9.616;2022-08-04T18:56:29;30.10;59.80
6863;DHT22;3470;48.738;9.616;2022-08-04T18:58:54;29.90;59.60
6863;DHT22;3470;48.738;9.616;2022-08-04T19:01:20;29.70;62.90
6863;DHT22;3470;48.738;9.616;2022-08-04T19:03:46;29.60;63.10
6863;DHT22;3470;48.738;9.616;2022-08-04T19:06:11;29.30;66.00
6863;DHT22;3470;48.738;9.616;2022-08-04T19:08:38;29.10;66.70
6863;DHT22;3470;48.738;9.616;2022-08-04T19:11:05;28.90;66.40
6863;DHT22;3470;48.738;9.616;2022-08-04T19:13:31;28.80;68.70
6863;DHT22;3470;48.738;9.616;2022-08-04T19:15:57;28.60;66.00
6863;DHT22;3470;48.738;9.616;2022-08-04T19:18:23;28.50;66.60
6863;DHT22;3470;48.738;9.616;2022-08-04T19:20:50;28.50;66.60
6863;DHT22;3470;48.738;9.616;2022-08-04T19:23:15;28.40;65.40
6863;DHT22;3470;48.738;9.616;2022-08-04T19:25:42;28.30;67.10
6863;DHT22;3470;48.738;9.616;2022-08-04T19:28:08;28.20;65.90
6863;DHT22;3470;48.738;9.616;2022-08-04T19:30:33;28.20;66.30
6863;DHT22;3470;48.738;9.616;2022-08-04T19:32:59;28.10;67.50
6863;DHT22;3470;48.738;9.616;2022-08-04T19:35:24;28.00;68.70
6863;DHT22;3470;48.738;9.616;2022-08-04T19:37:50;27.90;67.20
6863;DHT22;3470;48.738;9.616;2022-08-04T19:40:16;27.80;69.10
6863;DHT22;3470;48.738;9.616;2022-08-04T19:42:41;27.60;69.30
6863;DHT22;3470;48.738;9.616;2022-08-04T19:45:09;27.60;68.30
6863;DHT22;3470;48.738;9.616;2022-08-04T19:47:35;27.50;68.10
6863;DHT22;3470;48.738;9.616;2022-08-04T19:50:02;27.50;68.70
6863;DHT22;3470;48.738;9.616;2022-08-04T19:52:28;27.40;69.30
6863;DHT22;3470;48.738;9.616;2022-08-04T19:54:53;27.40;70.50
6863;DHT22;3470;48.738;9.616;2022-08-04T19:57:19;27.30;70.50
6863;DHT22;3470;48.738;9.616;2022-08-04T19:59:44;27.30;70.60
6863;DHT22;3470;48.738;9.616;2022-08-04T20:02:10;27.20;71.00
6863;DHT22;3470;48.738;9.616;2022-08-04T20:04:36;27.20;71.20
6863;DHT22;3470;48.738;9.616;2022-08-04T20:07:01;27.10;71.10
6863;DHT22;3470;48.738;9.616;2022-08-04T20:09:27;27.10;71.50
6863;DHT22;3470;48.738;9.616;2022-08-04T20:11:54;27.10;72.90
6863;DHT22;3470;48.738;9.616;2022-08-04T20:14:19;27.00;73.20
6863;DHT22;3470;48.738;9.616;2022-08-04T20:16:45;27.00;73.20
6863;DHT22;3470;48.738;9.616;2022-08-04T20:19:11;27.00;73.20
6863;DHT22;3470;48.738;9.616;2022-08-04T20:21:36;26.90;73.20
6863;DHT22;3470;48.738;9.616;2022-08-04T20:24:02;26.80;73.40
6863;DHT22;3470;48.738;9.616;2022-08-04T20:26:28;26.70;73.80
6863;DHT22;3470;48.738;9.616;2022-08-04T20:28:53;26.60;73.60
6863;DHT22;3470;48.738;9.616;2022-08-04T20:31:19;26.50;73.90
6863;DHT22;3470;48.738;9.616;2022-08-04T20:33:45;26.50;75.00
6863;DHT22;3470;48.738;9.616;2022-08-04T20:36:10;26.40;74.30
6863;DHT22;3470;48.738;9.616;2022-08-04T20:38:36;26.30;74.20
6863;DHT22;3470;48.738;9.616;2022-08-04T20:41:02;26.20;74.10
6863;DHT22;3470;48.738;9.616;2022-08-04T20:43:27;26.20;74.60